Aviation Digital Data Service (ADDS)

Output produced by METARs form (1307 UTC 21 February 2018)
found at http://www.aviationweather.gov/adds/metars/
 
WBSB 211230Z 19004KT 9999 FEW014 BKN140 27/25 Q1008 NOSIG
TAF WBSB 201100Z 2012/2118 26005KT 9999 SCT015 FEW016CB 
     TEMPO 2012/2014 6000 SHRA TSRA 
     BECMG 2018/2020 20003KT SCT014 FEW015CB